Time;durP1;ratioP1;P1;durP2;ratioP2;P2;SDS_P1;SDS_P2;PMS_P1;PMS_P2;Temp;Humidity;BMP_temperature;BMP_pressure;BME280_temperature;BME280_humidity;BME280_pressure;Samples;Min_cycle;Max_cycle;Signal;HPM_P1;HPM_P2
2023/09/29 00:00:48;;;;;;;;;;;;;;;29.59;77.70;101008.63;5023471;28;66619;-39
2023/09/29 00:03:19;;;;;;;;;;;;;;;29.61;78.35;101009.22;5025557;28;70614;-40
2023/09/29 00:05:49;;;;;;;;;;;;;;;29.64;77.94;101021.53;4995670;28;67010;-39
2023/09/29 00:08:22;;;;;;;;;;;;;;;29.67;78.66;101021.09;5002547;28;70677;-40
2023/09/29 00:10:52;;;;;;;;;;;;;;;29.67;78.84;101016.56;5016610;28;66234;-41
2023/09/29 00:13:47;;;;;;;;;;;;;;;29.70;81.01;101028.78;5013872;28;71272;-39
2023/09/29 00:16:17;;;;;;;;;;;;;;;29.68;82.12;101028.19;5005118;28;66001;-39
2023/09/29 00:18:46;;;;;;;;;;;;;;;29.69;81.94;101030.66;5013648;28;69551;-39
2023/09/29 00:21:16;;;;;;;;;;;;;;;29.69;82.54;101033.38;5012595;28;66169;-40
2023/09/29 00:23:46;;;;;;;;;;;;;;;29.71;82.27;101033.19;5011695;28;69923;-40
2023/09/29 00:26:16;;;;;;;;;;;;;;;29.72;82.77;101046.47;5020787;28;67031;-40
2023/09/29 00:28:49;;;;;;;;;;;;;;;29.72;82.76;101042.94;5000140;28;69690;-39
2023/09/29 00:31:20;;;;;;;;;;;;;;;29.71;83.17;101047.53;5018201;28;65935;-39
2023/09/29 00:33:49;;;;;;;;;;;;;;;29.70;83.31;101047.72;5024397;28;70382;-39
2023/09/29 00:36:19;;;;;;;;;;;;;;;29.71;83.15;101050.22;5018492;28;66854;-39
2023/09/29 00:38:49;;;;;;;;;;;;;;;29.74;83.49;101054.38;5017671;28;70328;-39
2023/09/29 00:41:19;;;;;;;;;;;;;;;29.79;82.86;101063.53;5022279;28;66274;-40
2023/09/29 00:43:50;;;;;;;;;;;;;;;29.81;82.77;101069.56;4996974;28;69611;-39
2023/09/29 00:46:19;;;;;;;;;;;;;;;29.84;82.76;101073.75;5015944;28;66293;-40
2023/09/29 00:48:50;;;;;;;;;;;;;;;29.87;80.98;101080.59;5020713;28;70252;-40
2023/09/29 00:51:21;;;;;;;;;;;;;;;29.90;79.74;101080.19;4998364;28;65712;-39
2023/09/29 00:53:51;;;;;;;;;;;;;;;29.94;78.60;101084.13;5016109;28;71601;-40
2023/09/29 00:56:21;;;;;;;;;;;;;;;29.97;77.76;101091.81;5018023;28;65239;-39
2023/09/29 00:58:53;;;;;;;;;;;;;;;30.01;76.94;101098.50;5003862;28;70263;-39
2023/09/29 01:01:24;;;;;;;;;;;;;;;30.03;76.58;101090.97;4997211;28;65452;-39
2023/09/29 01:03:54;;;;;;;;;;;;;;;30.06;75.87;101090.53;5019512;28;70082;-39
2023/09/29 01:06:24;;;;;;;;;;;;;;;30.08;75.57;101091.19;4997236;28;65826;-39
2023/09/29 01:08:54;;;;;;;;;;;;;;;30.11;75.47;101092.63;5003942;28;70618;-39
2023/09/29 01:11:24;;;;;;;;;;;;;;;30.13;74.93;101085.16;5000126;28;66488;-39
2023/09/29 01:13:54;;;;;;;;;;;;;;;30.15;74.84;101099.31;5008660;28;70562;-39
2023/09/29 01:16:24;;;;;;;;;;;;;;;30.17;74.44;101089.94;5021018;28;66811;-38
2023/09/29 01:18:54;;;;;;;;;;;;;;;30.19;74.48;101095.94;5016836;28;69212;-40
2023/09/29 01:21:24;;;;;;;;;;;;;;;30.21;73.97;101096.56;5005644;28;66525;-40
2023/09/29 01:23:54;;;;;;;;;;;;;;;30.22;74.01;101109.09;5009030;28;70198;-41
2023/09/29 01:26:26;;;;;;;;;;;;;;;30.26;73.62;101109.53;5015450;28;66615;-38
2023/09/29 01:28:56;;;;;;;;;;;;;;;30.26;73.78;101096.81;5012287;28;70370;-41
2023/09/29 01:31:26;;;;;;;;;;;;;;;30.28;73.82;101108.28;4991972;28;65365;-40
2023/09/29 01:33:56;;;;;;;;;;;;;;;30.30;73.21;101102.63;5007447;28;69823;-41
2023/09/29 01:36:26;;;;;;;;;;;;;;;30.33;73.21;101112.19;5010928;28;65966;-39
2023/09/29 01:38:56;;;;;;;;;;;;;;;30.34;73.46;101108.44;5005927;28;69813;-39
2023/09/29 01:41:28;;;;;;;;;;;;;;;30.35;73.32;101113.66;5008370;28;66814;-39
2023/09/29 01:43:57;;;;;;;;;;;;;;;30.37;73.01;101108.00;5011191;28;69684;-38
2023/09/29 01:46:29;;;;;;;;;;;;;;;30.40;72.59;101113.03;5013435;28;66649;-39
2023/09/29 01:49:00;;;;;;;;;;;;;;;30.41;72.40;101120.91;5015488;28;69747;-42
2023/09/29 01:51:31;;;;;;;;;;;;;;;30.44;72.72;101125.09;5010754;28;64697;-40
2023/09/29 01:54:00;;;;;;;;;;;;;;;30.46;72.32;101128.41;5018933;28;69297;-39
2023/09/29 01:56:31;;;;;;;;;;;;;;;30.48;72.23;101120.94;5008871;28;65754;-39
2023/09/29 01:59:02;;;;;;;;;;;;;;;30.49;72.22;101118.00;5018652;28;70310;-40
2023/09/29 02:01:36;;;;;;;;;;;;;;;30.52;72.30;101124.84;5017491;28;66164;-39
2023/09/29 02:04:06;;;;;;;;;;;;;;;30.54;72.05;101117.38;5027445;28;70033;-40
2023/09/29 02:06:37;;;;;;;;;;;;;;;30.57;71.95;101122.34;4983354;28;66037;-39
2023/09/29 02:09:10;;;;;;;;;;;;;;;30.59;71.69;101122.13;5029820;28;69874;-40
2023/09/29 02:11:42;;;;;;;;;;;;;;;30.60;71.85;101119.22;4996560;28;66456;-39
2023/09/29 02:14:12;;;;;;;;;;;;;;;30.62;71.59;101122.56;5015620;28;70149;-39
2023/09/29 02:16:42;;;;;;;;;;;;;;;30.64;72.01;101125.84;5009121;28;65319;-40
2023/09/29 02:19:12;;;;;;;;;;;;;;;30.65;71.64;101116.72;5015972;28;70890;-40
2023/09/29 02:21:45;;;;;;;;;;;;;;;30.67;71.71;101119.19;5012825;28;65212;-38
2023/09/29 02:24:17;;;;;;;;;;;;;;;30.70;71.72;101118.75;5012699;28;69883;-38
2023/09/29 02:26:47;;;;;;;;;;;;;;;30.72;71.29;101117.50;5021171;28;65966;-38
2023/09/29 02:29:17;;;;;;;;;;;;;;;30.73;71.32;101113.75;5019522;28;70243;-39
2023/09/29 02:31:46;;;;;;;;;;;;;;;30.77;71.27;101107.91;5020290;28;66097;-41
2023/09/29 02:34:16;;;;;;;;;;;;;;;30.78;70.91;101104.16;4999268;28;70017;-40
2023/09/29 02:36:46;;;;;;;;;;;;;;;30.80;71.26;101108.34;5001181;28;66895;-40
2023/09/29 02:39:16;;;;;;;;;;;;;;;30.82;70.95;101110.84;5006139;28;70851;-41
2023/09/29 02:41:46;;;;;;;;;;;;;;;30.84;70.81;101101.47;5021265;28;66270;-40
2023/09/29 02:44:15;;;;;;;;;;;;;;;30.87;71.09;101109.16;5023010;28;70541;-39
2023/09/29 02:46:45;;;;;;;;;;;;;;;30.89;70.52;101100.81;5018874;28;66846;-41
2023/09/29 02:49:16;;;;;;;;;;;;;;;30.90;70.75;101097.88;5026851;28;70673;-40
2023/09/29 02:51:46;;;;;;;;;;;;;;;30.94;70.79;101101.00;5017530;28;66582;-39
2023/09/29 02:54:16;;;;;;;;;;;;;;;30.96;70.68;101092.66;5017432;28;69829;-38
2023/09/29 02:56:46;;;;;;;;;;;;;;;30.97;70.33;101103.25;5016279;28;66597;-41
2023/09/29 02:59:16;;;;;;;;;;;;;;;31.00;70.17;101097.41;5002010;28;69106;-38
2023/09/29 03:01:46;;;;;;;;;;;;;;;31.02;70.31;101094.50;4999860;28;65673;-39
2023/09/29 03:04:16;;;;;;;;;;;;;;;31.03;70.35;101094.28;5014106;28;70152;-40
2023/09/29 03:06:46;;;;;;;;;;;;;;;31.05;70.27;101084.06;5015294;28;66807;-39
2023/09/29 03:09:18;;;;;;;;;;;;;;;31.08;70.23;101089.03;5011479;28;69497;-38
2023/09/29 03:11:49;;;;;;;;;;;;;;;31.09;70.02;101085.31;5017761;28;66061;-41
2023/09/29 03:14:19;;;;;;;;;;;;;;;31.12;70.02;101090.28;5021242;28;70119;-40
2023/09/29 03:16:49;;;;;;;;;;;;;;;31.13;70.07;101091.09;5024846;28;65293;-39
2023/09/29 03:19:19;;;;;;;;;;;;;;;31.14;69.54;101077.31;5021293;28;70245;-39
2023/09/29 03:21:49;;;;;;;;;;;;;;;31.17;70.00;101085.03;5022270;28;65967;-40
2023/09/29 03:24:18;;;;;;;;;;;;;;;31.20;69.61;101086.47;5016551;28;70334;-40
2023/09/29 03:26:49;;;;;;;;;;;;;;;31.22;69.57;101083.53;5021916;28;67188;-38
2023/09/29 03:29:19;;;;;;;;;;;;;;;31.24;69.46;101092.31;5019333;28;69770;-39
2023/09/29 03:31:50;;;;;;;;;;;;;;;31.26;69.18;101079.34;5021980;28;66549;-39
2023/09/29 03:34:23;;;;;;;;;;;;;;;31.29;69.55;101084.34;5028067;28;70523;-38
2023/09/29 03:36:53;;;;;;;;;;;;;;;31.30;69.43;101075.16;5021988;28;66018;-40
2023/09/29 03:39:23;;;;;;;;;;;;;;;31.32;69.53;101071.19;5021532;28;70177;-39
2023/09/29 03:41:55;;;;;;;;;;;;;;;31.34;68.99;101069.09;5017700;28;66724;-39
2023/09/29 03:44:25;;;;;;;;;;;;;;;31.36;69.18;101074.31;5021828;28;70509;-39
2023/09/29 03:46:55;;;;;;;;;;;;;;;31.39;68.58;101071.16;5015498;28;66612;-39
2023/09/29 03:49:26;;;;;;;;;;;;;;;31.43;68.55;101068.84;5014192;28;70787;-39
2023/09/29 03:51:56;;;;;;;;;;;;;;;31.44;68.70;101071.34;5013197;28;66316;-40
2023/09/29 03:54:25;;;;;;;;;;;;;;;31.47;68.64;101070.06;5000013;28;70324;-39
2023/09/29 03:56:55;;;;;;;;;;;;;;;31.50;68.26;101064.19;5013043;28;67029;-40
2023/09/29 03:59:25;;;;;;;;;;;;;;;31.52;68.23;101072.94;5016248;28;69257;-39
2023/09/29 04:01:55;;;;;;;;;;;;;;;31.55;68.17;101061.66;5012023;28;66858;-40
2023/09/29 04:04:25;;;;;;;;;;;;;;;31.56;68.06;101064.13;5008617;28;70341;-39
2023/09/29 04:06:55;;;;;;;;;;;;;;;31.60;68.13;101054.53;5014359;28;66502;-39
2023/09/29 04:09:25;;;;;;;;;;;;;;;31.63;68.16;101041.59;5022794;28;70542;-40
2023/09/29 04:11:54;;;;;;;;;;;;;;;31.65;68.04;101034.03;5015027;28;66009;-40
2023/09/29 04:14:24;;;;;;;;;;;;;;;31.66;68.40;101030.28;5022759;28;70532;-39
2023/09/29 04:17:02;;;;;;;;;;;;;;;31.70;68.04;101031.50;5019151;28;66991;-40
2023/09/29 04:19:34;;;;;;;;;;;;;;;31.73;67.91;101025.63;5022464;28;70329;-39
2023/09/29 04:22:04;;;;;;;;;;;;;;;31.75;67.78;101023.53;5009982;28;65899;-39
2023/09/29 04:24:34;;;;;;;;;;;;;;;31.77;67.73;101027.69;5016388;28;70222;-39
2023/09/29 04:27:04;;;;;;;;;;;;;;;31.77;67.92;101018.72;5024471;28;66178;-39
2023/09/29 04:29:35;;;;;;;;;;;;;;;31.82;67.79;101021.59;5028985;28;70464;-39
2023/09/29 04:32:06;;;;;;;;;;;;;;;31.85;67.50;101018.44;5017468;28;66209;-40
2023/09/29 04:34:36;;;;;;;;;;;;;;;31.89;67.55;101014.19;5021392;28;69519;-38
2023/09/29 04:37:05;;;;;;;;;;;;;;;31.90;67.40;101007.75;5020202;28;66937;-40
2023/09/29 04:39:35;;;;;;;;;;;;;;;31.91;67.42;100998.56;5017850;28;69603;-41
2023/09/29 04:42:05;;;;;;;;;;;;;;;31.94;67.46;101000.00;5028250;28;66403;-40
2023/09/29 04:44:37;;;;;;;;;;;;;;;31.97;67.36;100994.13;5018526;28;70460;-42
2023/09/29 04:47:07;;;;;;;;;;;;;;;31.99;67.33;101001.00;5017054;28;64929;-40
2023/09/29 04:49:37;;;;;;;;;;;;;;;32.01;67.31;101004.31;5022537;28;70017;-41
2023/09/29 04:52:06;;;;;;;;;;;;;;;32.03;67.39;100994.03;5019070;28;66285;-39
2023/09/29 04:54:36;;;;;;;;;;;;;;;32.07;67.07;100988.16;5019435;28;69287;-41
2023/09/29 04:57:06;;;;;;;;;;;;;;;32.09;66.98;100991.47;5026723;28;66298;-39
2023/09/29 04:59:36;;;;;;;;;;;;;;;32.11;66.97;100973.09;5015074;28;70633;-40
2023/09/29 05:02:06;;;;;;;;;;;;;;;32.15;66.87;100977.00;5033307;28;66828;-38
2023/09/29 05:04:35;;;;;;;;;;;;;;;32.17;66.80;100980.31;5020973;28;69808;-39
2023/09/29 05:07:05;;;;;;;;;;;;;;;32.20;66.67;100974.44;5018359;28;66401;-40
2023/09/29 05:09:35;;;;;;;;;;;;;;;32.21;66.69;100974.22;5026192;28;70568;-40
2023/09/29 05:12:05;;;;;;;;;;;;;;;32.24;66.58;100964.81;5021558;28;66011;-38
2023/09/29 05:14:35;;;;;;;;;;;;;;;32.26;66.72;100965.38;5012754;28;70210;-40
2023/09/29 05:17:05;;;;;;;;;;;;;;;32.28;66.57;100952.41;5014538;28;66043;-41
2023/09/29 05:19:35;;;;;;;;;;;;;;;32.30;66.37;100950.31;5021095;28;70327;-39
2023/09/29 05:22:04;;;;;;;;;;;;;;;32.32;66.25;100948.22;5017091;28;67196;-40
2023/09/29 05:24:34;;;;;;;;;;;;;;;32.34;66.42;100946.06;5021087;28;70507;-40
2023/09/29 05:27:05;;;;;;;;;;;;;;;32.36;66.00;100943.97;5019298;28;67316;-40
2023/09/29 05:29:37;;;;;;;;;;;;;;;32.38;66.40;100939.16;4988345;28;70110;-39
2023/09/29 05:32:06;;;;;;;;;;;;;;;32.40;66.08;100928.91;5018791;28;66169;-40
2023/09/29 05:34:36;;;;;;;;;;;;;;;32.42;66.07;100925.94;5016624;28;69637;-39
2023/09/29 05:37:06;;;;;;;;;;;;;;;32.45;65.85;100920.03;5009761;28;66789;-40
2023/09/29 05:39:36;;;;;;;;;;;;;;;32.47;65.88;100921.50;5020534;28;70351;-39
2023/09/29 05:42:05;;;;;;;;;;;;;;;32.51;65.81;100912.88;5014417;28;66678;-40
2023/09/29 05:44:35;;;;;;;;;;;;;;;32.52;65.92;100903.69;5019850;28;69586;-40
2023/09/29 05:47:05;;;;;;;;;;;;;;;32.54;65.75;100907.00;5014399;28;66602;-39
2023/09/29 05:49:35;;;;;;;;;;;;;;;32.58;65.78;100900.06;5016523;28;69930;-38
2023/09/29 05:52:05;;;;;;;;;;;;;;;32.60;65.44;100895.22;5016248;28;67329;-38
2023/09/29 05:54:34;;;;;;;;;;;;;;;32.61;65.24;100891.44;5020735;28;70456;-38
2023/09/29 05:57:04;;;;;;;;;;;;;;;32.64;65.30;100890.97;5015887;28;66573;-39
2023/09/29 05:59:34;;;;;;;;;;;;;;;32.67;65.14;100885.06;5019252;28;70350;-39
2023/09/29 06:02:04;;;;;;;;;;;;;;;32.69;65.25;100888.41;5010804;28;65968;-39
2023/09/29 06:04:46;;;;;;;;;;;;;;;32.70;65.09;100881.88;5013948;28;69354;-39
2023/09/29 06:07:17;;;;;;;;;;;;;;;32.73;65.05;100884.13;5016761;28;66585;-39
2023/09/29 06:09:46;;;;;;;;;;;;;;;32.75;64.82;100871.16;5008130;28;69254;-40
2023/09/29 06:12:16;;;;;;;;;;;;;;;32.78;64.92;100876.13;5002431;28;66171;-40
2023/09/29 06:14:46;;;;;;;;;;;;;;;32.81;64.72;100867.50;5009237;28;70746;-38
2023/09/29 06:17:16;;;;;;;;;;;;;;;32.82;64.79;100863.75;5010499;28;66543;-40
2023/09/29 06:19:46;;;;;;;;;;;;;;;32.86;64.53;100862.19;5013142;28;69792;-40
2023/09/29 06:22:15;;;;;;;;;;;;;;;32.89;64.65;100855.47;5021364;28;67043;-39
2023/09/29 06:24:45;;;;;;;;;;;;;;;32.91;64.47;100840.59;5022137;28;69849;-40
2023/09/29 06:27:15;;;;;;;;;;;;;;;32.94;64.13;100837.41;5008445;28;66008;-39
2023/09/29 06:29:49;;;;;;;;;;;;;;;32.96;64.19;100839.91;5017201;28;70259;-39
2023/09/29 06:32:19;;;;;;;;;;;;;;;32.99;64.28;100822.25;5020846;28;66085;-39
2023/09/29 06:34:49;;;;;;;;;;;;;;;33.02;64.15;100816.41;5010360;28;69746;-40
2023/09/29 06:37:19;;;;;;;;;;;;;;;33.06;64.16;100817.59;5020279;28;66870;-39
2023/09/29 06:39:48;;;;;;;;;;;;;;;33.10;63.97;100813.34;5012169;28;70142;-40
2023/09/29 06:42:18;;;;;;;;;;;;;;;33.13;63.71;100797.38;5020717;28;66339;-39
2023/09/29 06:44:48;;;;;;;;;;;;;;;33.17;63.75;100792.28;5015535;28;70362;-39
2023/09/29 06:47:19;;;;;;;;;;;;;;;33.21;63.65;100792.63;5016775;28;66104;-40
2023/09/29 06:49:49;;;;;;;;;;;;;;;33.23;63.73;100785.88;5012492;28;70538;-40
2023/09/29 06:52:18;;;;;;;;;;;;;;;33.27;63.44;100787.09;5014257;28;66674;-40
2023/09/29 06:54:48;;;;;;;;;;;;;;;33.30;63.71;100786.59;5015954;28;70237;-41
2023/09/29 06:57:18;;;;;;;;;;;;;;;33.33;63.45;100786.13;5017764;28;66747;-40
2023/09/29 06:59:48;;;;;;;;;;;;;;;33.37;63.19;100784.56;5010921;28;70069;-40
2023/09/29 07:02:18;;;;;;;;;;;;;;;33.41;63.26;100786.81;5009766;28;65611;-40
2023/09/29 07:04:48;;;;;;;;;;;;;;;33.44;62.89;100775.47;5011036;28;69683;-39
2023/09/29 07:07:17;;;;;;;;;;;;;;;33.48;63.12;100766.56;5020619;28;66817;-41
2023/09/29 07:09:47;;;;;;;;;;;;;;;33.53;62.66;100769.44;5003460;28;70528;-40
2023/09/29 07:12:17;;;;;;;;;;;;;;;33.56;62.81;100752.63;5014217;28;66924;-40
2023/09/29 07:14:47;;;;;;;;;;;;;;;33.61;62.80;100751.09;5015638;28;70282;-41
2023/09/29 07:17:17;;;;;;;;;;;;;;;33.64;62.33;100748.69;5013697;28;66017;-39
2023/09/29 07:19:47;;;;;;;;;;;;;;;33.67;62.49;100748.22;5019817;28;70196;-38
2023/09/29 07:22:17;;;;;;;;;;;;;;;33.72;62.19;100751.03;5014729;28;67095;-40
2023/09/29 07:24:47;;;;;;;;;;;;;;;33.74;62.35;100746.19;5021332;28;70278;-41
2023/09/29 07:27:18;;;;;;;;;;;;;;;33.79;61.84;100742.72;5017468;28;66136;-41
2023/09/29 07:29:48;;;;;;;;;;;;;;;33.84;62.20;100753.69;5017362;28;70135;-39
2023/09/29 07:32:20;;;;;;;;;;;;;;;33.87;62.00;100736.88;5019921;28;65934;-39
2023/09/29 07:34:49;;;;;;;;;;;;;;;33.93;61.79;100732.34;5015477;28;70468;-40
2023/09/29 07:37:19;;;;;;;;;;;;;;;33.95;61.21;100727.50;5016582;28;67447;-38
2023/09/29 07:39:49;;;;;;;;;;;;;;;34.00;61.26;100730.31;5013347;28;70286;-40
2023/09/29 07:42:18;;;;;;;;;;;;;;;34.04;61.47;100715.13;5014904;28;66639;-39
2023/09/29 07:44:48;;;;;;;;;;;;;;;34.07;61.16;100709.22;5012285;28;70272;-39
2023/09/29 07:47:18;;;;;;;;;;;;;;;34.13;60.95;100712.84;5019982;28;66156;-41
2023/09/29 07:49:48;;;;;;;;;;;;;;;34.17;61.05;100714.84;5011555;28;69698;-39
2023/09/29 07:52:18;;;;;;;;;;;;;;;34.21;60.27;100709.72;5012410;28;66918;-38
2023/09/29 07:54:48;;;;;;;;;;;;;;;34.25;60.22;100706.28;5013399;28;70375;-39
2023/09/29 07:57:18;;;;;;;;;;;;;;;34.28;60.76;100710.41;5015042;28;66829;-41
2023/09/29 07:59:48;;;;;;;;;;;;;;;34.33;60.58;100715.13;5014093;28;70297;-39
2023/09/29 08:02:18;;;;;;;;;;;;;;;34.37;60.32;100708.09;5024760;28;65595;-38
2023/09/29 08:04:47;;;;;;;;;;;;;;;34.40;59.83;100710.31;5024599;28;70087;-39
2023/09/29 08:07:17;;;;;;;;;;;;;;;34.44;59.78;100711.47;4994014;28;65725;-39
2023/09/29 08:09:48;;;;;;;;;;;;;;;34.50;59.50;100717.81;5024120;28;69860;-40
2023/09/29 08:12:18;;;;;;;;;;;;;;;34.51;59.91;100714.84;5018945;28;67847;-39
2023/09/29 08:14:48;;;;;;;;;;;;;;;34.53;60.14;100704.53;5024685;28;69826;-40
2023/09/29 08:17:21;;;;;;;;;;;;;;;34.55;59.64;100702.38;5017348;28;65587;-39
2023/09/29 08:19:51;;;;;;;;;;;;;;;34.60;59.36;100699.78;5019309;28;70279;-38
2023/09/29 08:22:20;;;;;;;;;;;;;;;34.63;59.24;100696.56;5021585;28;66015;-40
2023/09/29 08:25:07;;;;;;;;;;;;;;;34.65;58.69;100691.66;5003204;28;70286;-43
2023/09/29 08:27:38;;;;;;;;;;;;;;;34.66;58.46;100696.03;5021287;28;65409;-44
2023/09/29 08:30:08;;;;;;;;;;;;;;;34.69;58.83;100700.16;5021158;28;70327;-42
2023/09/29 08:32:40;;;;;;;;;;;;;;;34.72;58.40;100696.94;5023083;28;67101;-42
2023/09/29 08:35:13;;;;;;;;;;;;;;;34.75;58.71;100695.63;5021462;28;70859;-43
2023/09/29 08:37:43;;;;;;;;;;;;;;;34.78;58.14;100697.84;5016980;28;65501;-43
2023/09/29 08:40:16;;;;;;;;;;;;;;;34.80;58.66;100692.94;5021158;28;70438;-42
2023/09/29 08:42:49;;;;;;;;;;;;;;;34.80;58.01;100684.75;5019519;28;67066;-43
2023/09/29 08:45:19;;;;;;;;;;;;;;;34.82;58.59;100696.25;5012812;28;69435;-42
2023/09/29 08:47:50;;;;;;;;;;;;;;;34.82;58.75;100704.41;5012782;28;66678;-43
2023/09/29 08:50:24;;;;;;;;;;;;;;;34.83;58.07;100711.53;5010752;28;69666;-41
2023/09/29 08:52:54;;;;;;;;;;;;;;;34.84;58.53;100707.72;5013498;28;66451;-42
2023/09/29 08:55:24;;;;;;;;;;;;;;;34.83;58.35;100703.34;5018936;28;70580;-42
2023/09/29 08:57:55;;;;;;;;;;;;;;;34.85;58.47;100698.47;5020648;28;66733;-43
2023/09/29 09:00:26;;;;;;;;;;;;;;;34.83;58.67;100684.28;5008551;28;70556;-42
2023/09/29 09:02:58;;;;;;;;;;;;;;;34.83;58.08;100673.38;5008645;28;66172;-43
2023/09/29 09:05:28;;;;;;;;;;;;;;;34.83;58.66;100662.47;5012206;28;70496;-42
2023/09/29 09:08:01;;;;;;;;;;;;;;;34.82;58.24;100656.19;5008163;28;66447;-42
2023/09/29 09:10:32;;;;;;;;;;;;;;;34.82;58.65;100656.19;5007522;28;69481;-42
2023/09/29 09:13:02;;;;;;;;;;;;;;;34.83;58.17;100666.03;5013404;28;66718;-44
2023/09/29 09:15:32;;;;;;;;;;;;;;;34.81;58.30;100660.00;5015171;28;70142;-43
2023/09/29 09:18:03;;;;;;;;;;;;;;;34.81;58.18;100656.47;5013356;28;64931;-43
2023/09/29 09:20:33;;;;;;;;;;;;;;;34.81;58.68;100664.63;5004164;28;69884;-41
2023/09/29 09:23:03;;;;;;;;;;;;;;;34.82;58.30;100667.09;5003973;28;65755;-42
2023/09/29 09:25:38;;;;;;;;;;;;;;;34.81;58.66;100664.63;5013107;28;70070;-42
2023/09/29 09:28:19;;;;;;;;;;;;;;;34.79;58.34;100661.31;5016992;28;65911;-42
2023/09/29 09:30:59;;;;;;;;;;;;;;;34.78;58.16;100678.75;5012044;28;69459;-43
2023/09/29 09:33:31;;;;;;;;;;;;;;;34.78;58.78;100686.94;5009886;28;66818;-43
2023/09/29 09:36:10;;;;;;;;;;;;;;;34.73;58.31;100695.03;5016744;28;69850;-41
2023/09/29 09:38:40;;;;;;;;;;;;;;;34.74;58.76;100700.22;5012788;28;66150;-41
2023/09/29 09:41:12;;;;;;;;;;;;;;;34.72;58.41;100710.56;5013776;28;69491;-42
2023/09/29 09:43:43;;;;;;;;;;;;;;;34.68;59.04;100721.13;5015693;28;65705;-43
2023/09/29 09:46:14;;;;;;;;;;;;;;;34.68;58.49;100734.72;5011491;28;70645;-41
2023/09/29 09:48:53;;;;;;;;;;;;;;;34.13;61.14;100730.03;5011846;28;66880;-39
2023/09/29 09:51:30;;;;;;;;;;;;;;;33.89;62.53;100734.75;5009213;28;70359;-41
2023/09/29 09:54:03;;;;;;;;;;;;;;;33.79;63.76;100740.00;5008517;28;66632;-40
2023/09/29 09:56:56;;;;;;;;;;;;;;;33.64;64.04;100735.09;5006050;28;70324;-41
2023/09/29 09:59:31;;;;;;;;;;;;;;;33.59;64.75;100743.16;5018356;28;66488;-40
2023/09/29 10:02:06;;;;;;;;;;;;;;;33.53;65.08;100746.84;5012347;28;69917;-41
2023/09/29 10:04:38;;;;;;;;;;;;;;;33.48;65.03;100755.69;5007490;28;66485;-41
2023/09/29 10:07:08;;;;;;;;;;;;;;;33.47;65.63;100753.22;5011054;28;69820;-41
2023/09/29 10:09:43;;;;;;;;;;;;;;;33.41;65.63;100755.03;5008803;28;67098;-41
2023/09/29 10:12:23;;;;;;;;;;;;;;;33.40;65.83;100763.41;5012374;28;69696;-42
2023/09/29 10:14:53;;;;;;;;;;;;;;;33.38;65.96;100759.03;5014512;28;66502;-40
2023/09/29 10:17:23;;;;;;;;;;;;;;;33.38;66.30;100755.50;5007404;28;69047;-42
2023/09/29 10:19:54;;;;;;;;;;;;;;;33.36;66.12;100747.56;5013346;28;65999;-50
2023/09/29 10:22:26;;;;;;;;;;;;;;;33.34;66.66;100749.69;5013429;28;68617;-44
2023/09/29 10:24:59;;;;;;;;;;;;;;;33.36;66.62;100758.44;5008239;28;66278;-41
2023/09/29 10:27:33;;;;;;;;;;;;;;;33.65;65.73;100766.66;5014672;28;69403;-42
2023/09/29 10:30:16;;;;;;;;;;;;;;;33.78;64.82;100765.56;4994398;28;65341;-41
2023/09/29 10:32:48;;;;;;;;;;;;;;;33.87;64.37;100768.72;5019035;28;70636;-40
2023/09/29 10:35:23;;;;;;;;;;;;;;;33.90;64.18;100762.78;5021373;28;66047;-41
2023/09/29 10:37:55;;;;;;;;;;;;;;;33.93;64.34;100770.47;5012201;28;69382;-41
2023/09/29 10:40:31;;;;;;;;;;;;;;;33.94;64.21;100774.84;5014471;28;66923;-42
2023/09/29 10:43:02;;;;;;;;;;;;;;;33.96;63.71;100789.00;5022389;28;70410;-40
2023/09/29 10:45:36;;;;;;;;;;;;;;;33.96;63.73;100799.91;5014286;28;66639;-39
2023/09/29 10:48:07;;;;;;;;;;;;;;;33.97;63.47;100807.00;5023370;28;70053;-42
2023/09/29 10:50:41;;;;;;;;;;;;;;;33.97;63.73;100812.47;5020912;28;66778;-40
2023/09/29 10:53:11;;;;;;;;;;;;;;;33.95;63.84;100811.88;5020249;28;70328;-40
2023/09/29 10:55:43;;;;;;;;;;;;;;;33.95;63.53;100820.03;5019306;28;67046;-39
2023/09/29 10:58:14;;;;;;;;;;;;;;;33.95;63.48;100814.59;5019935;28;70455;-41
2023/09/29 11:00:47;;;;;;;;;;;;;;;33.93;63.44;100814.00;5020411;28;65896;-42
2023/09/29 11:03:18;;;;;;;;;;;;;;;33.93;63.31;100822.16;5017731;28;70529;-42
2023/09/29 11:05:52;;;;;;;;;;;;;;;33.92;63.47;100820.50;5030294;28;67075;-41
2023/09/29 11:08:34;;;;;;;;;;;;;;;33.90;63.72;100812.59;5021862;28;70186;-42
2023/09/29 11:11:05;;;;;;;;;;;;;;;33.89;63.36;100805.50;5024630;28;66734;-40
2023/09/29 11:13:38;;;;;;;;;;;;;;;33.87;63.36;100802.19;5022533;28;69514;-40
2023/09/29 11:16:19;;;;;;;;;;;;;;;33.86;63.75;100797.00;5012437;28;65490;-40
2023/09/29 11:18:49;;;;;;;;;;;;;;;33.85;63.98;100808.94;5015675;28;69309;-41
2023/09/29 11:21:19;;;;;;;;;;;;;;;33.83;63.56;100816.53;5021529;28;66303;-41
2023/09/29 11:23:49;;;;;;;;;;;;;;;33.82;63.76;100821.13;5022315;28;69006;-40
2023/09/29 11:26:20;;;;;;;;;;;;;;;33.79;63.95;100832.50;5025041;28;66643;-40
2023/09/29 11:28:51;;;;;;;;;;;;;;;33.63;64.09;100817.78;4998168;28;69576;-48
2023/09/29 11:31:22;;;;;;;;;;;;;;;33.75;63.73;100847.66;5018521;28;66275;-38
2023/09/29 11:33:52;;;;;;;;;;;;;;;33.38;65.95;100851.50;5019502;28;69973;-41
2023/09/29 11:36:23;;;;;;;;;;;;;;;33.25;67.03;100868.03;5012805;28;65238;-40
2023/09/29 11:38:53;;;;;;;;;;;;;;;33.16;67.55;100872.19;5019918;28;70707;-40
2023/09/29 11:41:23;;;;;;;;;;;;;;;33.07;68.31;100906.19;4998944;28;66363;-46
2023/09/29 11:43:53;;;;;;;;;;;;;;;33.06;68.70;100902.66;5025215;28;69567;-41
2023/09/29 11:46:23;;;;;;;;;;;;;;;33.00;69.20;100911.75;5013611;28;67057;-40
2023/09/29 11:48:53;;;;;;;;;;;;;;;32.99;69.07;100920.09;5024380;28;69682;-41
2023/09/29 11:51:25;;;;;;;;;;;;;;;32.97;69.18;100911.38;5011653;28;66011;-39
2023/09/29 11:53:55;;;;;;;;;;;;;;;32.98;69.27;100915.72;5023014;28;69719;-41
2023/09/29 11:56:25;;;;;;;;;;;;;;;32.93;69.49;100920.00;5018942;28;66792;-41
2023/09/29 11:58:54;;;;;;;;;;;;;;;32.93;69.54;100916.41;5018090;28;69266;-40
2023/09/29 12:01:26;;;;;;;;;;;;;;;32.92;69.48;100902.00;5017501;28;66203;-41
2023/09/29 12:03:58;;;;;;;;;;;;;;;32.88;69.56;100919.84;5016940;28;69381;-40
2023/09/29 12:06:28;;;;;;;;;;;;;;;32.85;69.99;100920.31;5012946;28;66093;-41
2023/09/29 12:08:58;;;;;;;;;;;;;;;32.96;69.90;100923.28;4989813;28;69846;-49
2023/09/29 12:11:28;;;;;;;;;;;;;;;33.10;69.17;100924.78;5027880;28;65680;-42
2023/09/29 12:13:57;;;;;;;;;;;;;;;33.20;68.25;100933.16;5015878;28;69986;-41
2023/09/29 12:16:27;;;;;;;;;;;;;;;33.25;68.01;100929.75;5025922;28;66470;-42
2023/09/29 12:18:57;;;;;;;;;;;;;;;33.28;67.60;100935.53;5021010;28;70872;-41
2023/09/29 12:21:27;;;;;;;;;;;;;;;33.29;67.76;100941.78;5020551;28;67189;-42
2023/09/29 12:23:58;;;;;;;;;;;;;;;33.29;67.24;100947.22;5015857;28;69021;-40
2023/09/29 12:26:28;;;;;;;;;;;;;;;33.28;66.83;100935.53;5024298;28;66992;-39
2023/09/29 12:28:58;;;;;;;;;;;;;;;33.29;67.03;100942.63;5011095;28;69789;-40
2023/09/29 12:31:29;;;;;;;;;;;;;;;33.30;66.58;100949.72;5018070;28;66431;-41
2023/09/29 12:33:58;;;;;;;;;;;;;;;33.30;66.37;100944.28;5011523;28;69001;-40
2023/09/29 12:36:28;;;;;;;;;;;;;;;33.31;66.28;100956.81;5017075;28;66013;-42
2023/09/29 12:38:58;;;;;;;;;;;;;;;33.31;66.24;100951.38;5014761;28;70155;-42
2023/09/29 12:41:28;;;;;;;;;;;;;;;33.31;66.09;100951.38;5018577;28;65848;-41
2023/09/29 12:43:58;;;;;;;;;;;;;;;33.30;65.99;100948.91;5014547;28;70290;-40
2023/09/29 12:46:28;;;;;;;;;;;;;;;33.29;65.90;100947.22;5020046;28;66565;-41
2023/09/29 12:49:01;;;;;;;;;;;;;;;33.27;65.75;100944.75;5014341;28;70085;-42
2023/09/29 12:51:31;;;;;;;;;;;;;;;33.25;66.13;100952.31;5007015;28;65859;-40
2023/09/29 12:54:14;;;;;;;;;;;;;;;33.23;65.86;100945.44;5020780;28;70050;-42